createdAt,value
2023-05-09T00:00:33.786Z,6.70
2023-05-09T00:03:02.569Z,6.20
2023-05-09T00:05:30.032Z,10.00
2023-05-09T00:07:57.175Z,6.20
2023-05-09T00:10:27.409Z,9.80
2023-05-09T00:12:54.587Z,8.90
2023-05-09T00:15:21.702Z,8.50
2023-05-09T00:17:48.898Z,10.60
2023-05-09T00:20:16.010Z,8.00
2023-05-09T00:22:43.159Z,8.10
2023-05-09T00:25:10.924Z,8.80
2023-05-09T00:27:38.212Z,9.90
2023-05-09T00:30:06.886Z,8.20
2023-05-09T00:32:34.456Z,7.40
2023-05-09T00:35:01.603Z,7.00
2023-05-09T00:37:30.785Z,7.80
2023-05-09T00:39:58.026Z,8.90
2023-05-09T00:42:25.284Z,8.20
2023-05-09T00:44:52.839Z,8.70
2023-05-09T00:47:21.251Z,9.30
2023-05-09T00:49:48.778Z,8.10
2023-05-09T00:52:16.132Z,9.90
2023-05-09T00:54:43.489Z,8.70
2023-05-09T00:57:10.639Z,6.00
2023-05-09T00:59:37.788Z,9.80
2023-05-09T01:02:04.942Z,10.60
2023-05-09T01:04:32.605Z,7.80
2023-05-09T01:07:06.521Z,7.90
2023-05-09T01:10:11.764Z,11.30
2023-05-09T01:12:52.161Z,9.00
2023-05-09T01:15:34.694Z,9.40
2023-05-09T01:18:13.516Z,6.70
2023-05-09T01:20:46.991Z,7.50
2023-05-09T01:23:44.270Z,9.20
2023-05-09T01:26:18.228Z,8.20
2023-05-09T01:28:52.134Z,8.50
2023-05-09T01:31:19.318Z,9.70
2023-05-09T01:33:51.350Z,9.50
2023-05-09T01:36:18.713Z,8.50
2023-05-09T01:38:46.370Z,8.40
2023-05-09T01:41:13.520Z,7.50
2023-05-09T01:43:40.720Z,10.30
2023-05-09T01:46:08.035Z,11.40
2023-05-09T01:48:36.402Z,7.80
2023-05-09T01:51:03.760Z,7.30
2023-05-09T01:53:30.919Z,10.30
2023-05-09T01:55:59.638Z,5.90
2023-05-09T01:58:26.955Z,7.40
2023-05-09T02:00:54.232Z,7.00
2023-05-09T02:03:22.339Z,9.20
2023-05-09T02:05:49.556Z,9.20
2023-05-09T02:08:17.092Z,11.90
2023-05-09T02:10:44.247Z,8.20
2023-05-09T02:13:11.433Z,9.60
2023-05-09T02:15:40.450Z,8.10
2023-05-09T02:18:07.609Z,6.90
2023-05-09T02:20:37.665Z,10.80
2023-05-09T02:23:04.821Z,8.40
2023-05-09T02:25:33.319Z,9.10
2023-05-09T02:28:00.652Z,8.50
2023-05-09T02:30:28.118Z,9.70
2023-05-09T02:33:01.852Z,9.80
2023-05-09T02:35:29.065Z,9.70
2023-05-09T02:37:58.702Z,6.90
2023-05-09T02:40:27.271Z,8.70
2023-05-09T02:42:54.418Z,8.30
2023-05-09T02:45:22.076Z,7.40
2023-05-09T02:47:49.310Z,7.20
2023-05-09T02:50:16.581Z,8.70
2023-05-09T02:52:44.251Z,10.10
2023-05-09T02:55:11.629Z,6.20
2023-05-09T02:57:40.186Z,7.40
2023-05-09T03:00:09.878Z,7.30
2023-05-09T03:02:37.508Z,8.50
2023-05-09T03:05:06.554Z,8.30
2023-05-09T03:07:34.627Z,9.30
2023-05-09T03:10:02.089Z,9.60
2023-05-09T03:12:31.190Z,7.20
2023-05-09T03:14:58.340Z,7.80
2023-05-09T03:17:26.013Z,9.70
2023-05-09T03:19:53.364Z,8.50
2023-05-09T03:22:20.823Z,7.90
2023-05-09T03:25:00.870Z,7.30
2023-05-09T03:27:28.127Z,8.70
2023-05-09T03:29:55.785Z,8.00
2023-05-09T03:32:22.961Z,8.40
2023-05-09T03:34:51.421Z,9.00
2023-05-09T03:37:18.776Z,7.60
2023-05-09T03:39:46.132Z,6.90
2023-05-09T03:42:13.627Z,7.20
2023-05-09T03:44:41.255Z,6.80
2023-05-09T03:47:08.405Z,8.10
2023-05-09T03:52:06.091Z,7.20
2023-05-09T03:54:33.546Z,6.70
2023-05-09T03:57:01.418Z,7.80
2023-05-09T03:59:28.786Z,9.20
2023-05-09T04:01:56.367Z,8.80
2023-05-09T04:04:25.225Z,8.60
2023-05-09T04:06:53.306Z,8.50
2023-05-09T04:09:20.554Z,9.00
2023-05-09T04:11:47.911Z,7.90
2023-05-09T04:14:15.672Z,10.10
2023-05-09T04:16:42.868Z,8.90
2023-05-09T04:19:10.393Z,8.00
2023-05-09T04:21:38.379Z,8.40
2023-05-09T04:24:06.739Z,9.30
2023-05-09T04:26:39.335Z,10.50
2023-05-09T04:29:09.034Z,9.90
2023-05-09T04:31:36.671Z,10.30
2023-05-09T04:34:04.566Z,9.40
2023-05-09T04:36:34.196Z,11.20
2023-05-09T04:39:01.326Z,8.20
2023-05-09T04:41:29.089Z,7.00
2023-05-09T04:43:56.648Z,13.40
2023-05-09T04:46:26.149Z,8.90
2023-05-09T04:48:53.817Z,8.40
2023-05-09T04:51:21.072Z,8.30
2023-05-09T04:53:48.235Z,8.40
2023-05-09T04:56:16.511Z,7.90
2023-05-09T04:58:44.418Z,8.70
2023-05-09T05:01:12.061Z,9.40
2023-05-09T05:03:39.598Z,8.20
2023-05-09T05:06:07.566Z,8.40
2023-05-09T05:08:35.230Z,8.50
2023-05-09T05:11:02.890Z,8.00
2023-05-09T05:13:30.454Z,7.50
2023-05-09T05:15:59.919Z,8.10
2023-05-09T05:18:27.112Z,10.40
2023-05-09T05:20:54.478Z,10.60
2023-05-09T05:23:21.626Z,13.20
2023-05-09T05:25:50.206Z,17.50
2023-05-09T05:28:17.461Z,11.30
2023-05-09T05:30:44.815Z,9.80
2023-05-09T05:33:11.916Z,8.00
2023-05-09T05:35:39.325Z,8.60
2023-05-09T05:38:06.476Z,7.50
2023-05-09T05:40:33.830Z,8.50
2023-05-09T05:43:03.038Z,5.20
2023-05-09T05:45:31.634Z,7.10
2023-05-09T05:47:59.530Z,10.20
2023-05-09T05:50:26.736Z,6.80
2023-05-09T05:52:54.501Z,6.40
2023-05-09T05:55:21.858Z,8.90
2023-05-09T05:57:49.038Z,12.70
2023-05-09T06:00:17.103Z,5.00
2023-05-09T06:02:46.509Z,7.20
2023-05-09T06:05:20.192Z,10.40
2023-05-09T06:07:47.647Z,8.00
2023-05-09T06:10:16.279Z,7.10
2023-05-09T06:12:45.616Z,5.40
2023-05-09T06:15:13.235Z,6.30
2023-05-09T06:17:43.257Z,11.70
2023-05-09T06:20:11.018Z,6.00
2023-05-09T06:22:38.747Z,5.00
2023-05-09T06:25:09.480Z,9.90
2023-05-09T06:27:38.122Z,9.30
2023-05-09T06:30:23.739Z,6.00
2023-05-09T06:32:53.669Z,5.70
2023-05-09T06:35:21.124Z,6.20
2023-05-09T06:37:48.979Z,10.60
2023-05-09T06:40:17.888Z,6.10
2023-05-09T06:42:45.535Z,5.90
2023-05-09T06:45:13.560Z,6.20
2023-05-09T06:47:41.030Z,8.20
2023-05-09T06:50:08.990Z,13.60
2023-05-09T06:52:36.306Z,7.70
2023-05-09T06:55:04.085Z,5.90
2023-05-09T06:57:31.542Z,5.80
2023-05-09T06:59:58.680Z,5.00
2023-05-09T07:02:26.268Z,6.90
2023-05-09T07:04:53.528Z,7.80
2023-05-09T07:07:20.684Z,6.70
2023-05-09T07:09:49.335Z,5.50
2023-05-09T07:12:20.073Z,7.50
2023-05-09T07:14:47.342Z,5.40
2023-05-09T07:17:22.706Z,5.20
2023-05-09T07:19:51.305Z,3.30
2023-05-09T07:22:18.565Z,3.50
2023-05-09T07:24:46.726Z,7.40
2023-05-09T07:27:14.278Z,4.40
2023-05-09T07:29:41.412Z,4.40
2023-05-09T07:32:09.234Z,3.80
2023-05-09T07:34:36.649Z,4.00
2023-05-09T07:37:03.994Z,2.70
2023-05-09T07:39:31.235Z,4.90
2023-05-09T07:41:58.397Z,4.70
2023-05-09T07:44:25.543Z,2.70
2023-05-09T07:46:52.687Z,2.70
2023-05-09T07:49:19.834Z,4.40
2023-05-09T07:51:46.990Z,3.80
2023-05-09T07:54:14.401Z,3.20
2023-05-09T07:56:41.497Z,4.40
2023-05-09T07:59:08.754Z,3.90
2023-05-09T08:01:35.905Z,5.70
2023-05-09T08:04:03.126Z,3.90
2023-05-09T08:06:30.517Z,6.40
2023-05-09T08:08:57.670Z,2.70
2023-05-09T08:11:24.822Z,6.20
2023-05-09T08:13:52.383Z,2.00
2023-05-09T08:16:19.789Z,3.30
2023-05-09T08:18:47.098Z,3.10
2023-05-09T08:21:14.286Z,2.50
2023-05-09T08:23:41.611Z,2.90
2023-05-09T08:26:08.757Z,4.30
2023-05-09T08:28:35.813Z,5.20
2023-05-09T08:31:03.059Z,2.00
2023-05-09T08:33:30.935Z,2.70
2023-05-09T08:35:58.134Z,1.90
2023-05-09T08:38:25.378Z,4.70
2023-05-09T08:40:52.500Z,4.20
2023-05-09T08:43:19.651Z,3.00
2023-05-09T08:45:48.664Z,5.20
2023-05-09T08:48:16.614Z,3.50
2023-05-09T08:50:44.380Z,2.70
2023-05-09T08:53:14.610Z,4.20
2023-05-09T08:55:41.773Z,3.70
2023-05-09T08:58:09.786Z,3.80
2023-05-09T09:00:38.523Z,5.40
2023-05-09T09:03:05.804Z,5.50
2023-05-09T09:05:41.230Z,3.00
2023-05-09T09:08:09.781Z,2.70
2023-05-09T09:10:36.963Z,3.40
2023-05-09T09:13:05.249Z,5.50
2023-05-09T09:15:37.085Z,5.90
2023-05-09T09:18:08.270Z,3.40
2023-05-09T09:20:37.663Z,3.50
2023-05-09T09:23:05.931Z,3.70
2023-05-09T09:25:33.080Z,7.10
2023-05-09T09:28:00.128Z,2.20
2023-05-09T09:30:27.797Z,2.60
2023-05-09T09:32:55.295Z,8.40
2023-05-09T09:35:22.511Z,7.20
2023-05-09T09:37:49.660Z,3.50
2023-05-09T09:42:59.329Z,3.80
2023-05-09T09:45:28.527Z,4.30
2023-05-09T09:47:55.787Z,5.50
2023-05-09T09:50:25.776Z,3.50
2023-05-09T09:55:22.288Z,2.50
2023-05-09T09:57:49.616Z,2.90
2023-05-09T10:00:19.030Z,4.50
2023-05-09T10:02:53.722Z,2.80
2023-05-09T10:05:21.441Z,6.30
2023-05-09T10:07:59.522Z,3.90
2023-05-09T10:10:28.535Z,3.90
2023-05-09T10:12:57.997Z,3.80
2023-05-09T10:15:25.920Z,2.80
2023-05-09T10:18:01.329Z,3.30
2023-05-09T10:20:28.808Z,3.60
2023-05-09T10:23:01.452Z,3.70
2023-05-09T10:25:40.106Z,3.60
2023-05-09T10:28:16.200Z,3.50
2023-05-09T10:31:02.069Z,3.10
2023-05-09T10:33:38.120Z,4.00
2023-05-09T10:36:05.588Z,5.90
2023-05-09T10:38:32.739Z,3.60
2023-05-09T10:40:59.886Z,5.60
2023-05-09T10:43:27.554Z,3.60
2023-05-09T10:45:54.695Z,3.30
2023-05-09T10:48:21.769Z,4.00
2023-05-09T10:50:48.905Z,5.50
2023-05-09T10:53:18.101Z,5.90
2023-05-09T10:55:55.712Z,3.80
2023-05-09T10:58:25.212Z,2.00
2023-05-09T11:00:54.602Z,2.10
2023-05-09T11:05:55.990Z,3.70
2023-05-09T11:08:25.421Z,4.60
2023-05-09T11:10:56.538Z,4.90
2023-05-09T11:13:31.002Z,3.20
2023-05-09T11:16:01.780Z,4.90
2023-05-09T11:18:29.564Z,3.20
2023-05-09T11:20:56.820Z,3.00
2023-05-09T11:23:27.872Z,2.90
2023-05-09T11:25:55.119Z,3.00
2023-05-09T11:28:31.902Z,4.40
2023-05-09T11:31:18.462Z,4.20
2023-05-09T11:33:47.497Z,2.60
2023-05-09T11:36:28.170Z,3.50
2023-05-09T11:39:06.630Z,3.10
2023-05-09T11:41:47.258Z,2.90
2023-05-09T11:44:18.912Z,3.80
2023-05-09T11:46:46.980Z,5.20
2023-05-09T11:49:14.245Z,3.60
2023-05-09T11:51:42.215Z,4.30
2023-05-09T11:54:10.806Z,4.20
2023-05-09T11:56:40.311Z,2.20
2023-05-09T11:59:07.977Z,4.00
2023-05-09T12:01:35.129Z,2.10
2023-05-09T12:04:02.578Z,2.90
2023-05-09T12:06:30.355Z,2.70
2023-05-09T12:08:58.115Z,3.20
2023-05-09T12:11:25.582Z,1.80
2023-05-09T12:13:53.245Z,2.70
2023-05-09T12:16:20.762Z,1.90
2023-05-09T12:18:49.503Z,3.00
2023-05-09T12:21:17.590Z,2.10
2023-05-09T12:23:45.703Z,2.90
2023-05-09T12:26:13.097Z,3.00
2023-05-09T12:28:40.261Z,3.90
2023-05-09T12:31:07.535Z,2.90
2023-05-09T12:33:35.172Z,5.10
2023-05-09T12:36:11.277Z,17.70
2023-05-09T12:38:39.133Z,3.50
2023-05-09T12:41:12.961Z,3.20
2023-05-09T12:43:49.797Z,5.40
2023-05-09T12:46:20.711Z,3.60
2023-05-09T12:48:48.829Z,4.50
2023-05-09T12:51:22.837Z,3.60
2023-05-09T12:53:50.038Z,4.70
2023-05-09T12:56:18.866Z,6.50
2023-05-09T12:58:55.652Z,4.30
2023-05-09T13:01:29.258Z,5.70
2023-05-09T13:04:03.978Z,5.30
2023-05-09T13:06:31.156Z,5.50
2023-05-09T13:09:02.553Z,5.70
2023-05-09T13:11:29.884Z,4.00
2023-05-09T13:13:57.611Z,4.10
2023-05-09T13:16:25.109Z,6.70
2023-05-09T13:18:52.320Z,5.00
2023-05-09T13:21:19.675Z,8.60
2023-05-09T13:23:46.830Z,5.40
2023-05-09T13:26:13.984Z,4.30
2023-05-09T13:28:41.461Z,4.40
2023-05-09T13:31:08.726Z,5.90
2023-05-09T13:33:35.953Z,4.50
2023-05-09T13:36:04.129Z,8.50
2023-05-09T13:38:32.423Z,3.40
2023-05-09T13:41:00.334Z,4.90
2023-05-09T13:43:27.633Z,3.30
2023-05-09T13:45:54.807Z,6.40
2023-05-09T13:48:22.046Z,12.30
2023-05-09T13:50:49.808Z,5.30
2023-05-09T13:53:16.966Z,3.30
2023-05-09T13:55:45.834Z,8.70
2023-05-09T13:58:13.112Z,5.20
2023-05-09T14:00:40.280Z,3.30
2023-05-09T14:03:07.491Z,2.70
2023-05-09T14:05:34.784Z,8.10
2023-05-09T14:08:01.922Z,4.90
2023-05-09T14:10:29.395Z,3.90
2023-05-09T14:12:57.262Z,5.20
2023-05-09T14:15:24.504Z,4.90
2023-05-09T14:17:51.743Z,5.10
2023-05-09T14:20:18.934Z,8.90
2023-05-09T14:22:46.896Z,5.10
2023-05-09T14:25:14.357Z,4.70
2023-05-09T14:27:41.499Z,4.90
2023-05-09T14:30:09.383Z,3.80
2023-05-09T14:32:37.557Z,4.60
2023-05-09T14:35:05.343Z,4.40
2023-05-09T14:37:33.187Z,4.20
2023-05-09T14:40:05.705Z,3.90
2023-05-09T14:42:33.410Z,6.90
2023-05-09T14:45:00.580Z,6.70
2023-05-09T14:47:27.877Z,3.50
2023-05-09T14:49:55.601Z,5.90
2023-05-09T14:52:22.755Z,8.50
2023-05-09T14:54:49.913Z,4.70
2023-05-09T14:57:17.669Z,3.60
2023-05-09T14:59:44.822Z,3.50
2023-05-09T15:02:12.190Z,5.10
2023-05-09T15:04:41.586Z,4.60
2023-05-09T15:07:09.255Z,4.00
2023-05-09T15:09:36.400Z,5.80
2023-05-09T15:12:03.659Z,4.40
2023-05-09T15:14:30.915Z,4.60
2023-05-09T15:17:01.553Z,7.00
2023-05-09T15:19:31.900Z,4.80
2023-05-09T15:22:00.095Z,4.00
2023-05-09T15:24:27.416Z,3.60
2023-05-09T15:26:54.561Z,2.60
2023-05-09T15:29:24.385Z,2.70
2023-05-09T15:31:52.238Z,6.70
2023-05-09T15:34:19.398Z,6.10
2023-05-09T15:36:46.555Z,4.80
2023-05-09T15:39:13.705Z,5.70
2023-05-09T15:41:40.852Z,4.30
2023-05-09T15:44:08.524Z,3.00
2023-05-09T15:46:35.995Z,3.40
2023-05-09T15:49:04.156Z,8.30
2023-05-09T15:51:32.130Z,3.60
2023-05-09T15:53:59.283Z,6.70
2023-05-09T15:56:26.436Z,3.00
2023-05-09T15:58:53.586Z,7.50
2023-05-09T16:01:21.607Z,7.30
2023-05-09T16:03:49.088Z,14.10
2023-05-09T16:06:16.680Z,12.00
2023-05-09T16:08:44.347Z,10.30
2023-05-09T16:11:13.041Z,5.30
2023-05-09T16:13:40.904Z,6.10
2023-05-09T16:16:07.952Z,3.00
2023-05-09T16:18:35.209Z,4.70
2023-05-09T16:21:02.768Z,2.70
2023-05-09T16:23:30.227Z,2.50
2023-05-09T16:25:57.376Z,2.70
2023-05-09T16:28:27.297Z,3.70
2023-05-09T16:30:54.447Z,4.10
2023-05-09T16:33:21.601Z,6.70
2023-05-09T16:35:48.751Z,6.30
2023-05-09T16:38:15.888Z,3.50
2023-05-09T16:40:43.056Z,4.40
2023-05-09T16:43:10.223Z,2.30
2023-05-09T16:45:37.374Z,3.50
2023-05-09T16:48:05.153Z,3.50
2023-05-09T16:50:32.275Z,2.80
2023-05-09T16:52:59.536Z,3.60
2023-05-09T16:55:26.998Z,3.50
2023-05-09T16:57:54.140Z,2.50
2023-05-09T17:00:23.940Z,4.10
2023-05-09T17:02:51.130Z,3.90
2023-05-09T17:05:18.560Z,3.30
2023-05-09T17:07:45.712Z,6.20
2023-05-09T17:10:12.869Z,3.60
2023-05-09T17:12:40.225Z,4.30
2023-05-09T17:15:08.033Z,5.90
2023-05-09T17:17:35.730Z,4.90
2023-05-09T17:20:04.748Z,4.30
2023-05-09T17:22:32.312Z,4.70
2023-05-09T17:24:59.375Z,6.70
2023-05-09T17:27:27.424Z,4.00
2023-05-09T17:29:54.579Z,3.60
2023-05-09T17:32:21.728Z,4.40
2023-05-09T17:34:48.893Z,3.00
2023-05-09T17:37:16.032Z,5.40
2023-05-09T17:39:44.211Z,4.80
2023-05-09T17:42:12.264Z,7.10
2023-05-09T17:44:41.018Z,3.60
2023-05-09T17:47:09.554Z,4.00
2023-05-09T17:49:36.705Z,4.00
2023-05-09T17:52:03.852Z,4.60
2023-05-09T17:54:31.105Z,4.10
2023-05-09T17:57:01.656Z,5.70
2023-05-09T17:59:29.195Z,4.50
2023-05-09T18:01:56.406Z,4.20
2023-05-09T18:04:23.596Z,7.00
2023-05-09T18:06:50.985Z,5.30
2023-05-09T18:09:18.923Z,9.10
2023-05-09T18:11:46.081Z,7.10
2023-05-09T18:14:13.341Z,5.80
2023-05-09T18:16:40.481Z,9.30
2023-05-09T18:19:07.662Z,6.20
2023-05-09T18:21:36.522Z,8.40
2023-05-09T18:24:04.390Z,7.20
2023-05-09T18:26:31.540Z,7.60
2023-05-09T18:28:58.692Z,8.20
2023-05-09T18:31:25.920Z,11.00
2023-05-09T18:33:53.091Z,6.30
2023-05-09T18:36:21.062Z,9.00
2023-05-09T18:38:48.625Z,6.40
2023-05-09T18:41:18.538Z,9.40
2023-05-09T18:43:46.327Z,7.40
2023-05-09T18:46:17.512Z,10.90
2023-05-09T18:48:45.645Z,6.90
2023-05-09T18:51:13.083Z,8.00
2023-05-09T18:53:40.744Z,11.00
2023-05-09T18:56:09.130Z,9.30
2023-05-09T18:58:36.887Z,10.20
2023-05-09T19:01:04.794Z,10.00
2023-05-09T19:03:32.313Z,11.20
2023-05-09T19:06:00.133Z,9.80
2023-05-09T19:08:27.641Z,13.40
2023-05-09T19:10:55.029Z,12.30
2023-05-09T19:13:22.235Z,8.90
2023-05-09T19:15:49.809Z,9.80
2023-05-09T19:18:16.968Z,11.80
2023-05-09T19:20:44.212Z,14.60
2023-05-09T19:23:12.281Z,11.30
2023-05-09T19:25:39.296Z,9.40
2023-05-09T19:28:06.712Z,13.90
2023-05-09T19:30:33.925Z,10.50
2023-05-09T19:33:01.128Z,13.00
2023-05-09T19:35:28.344Z,16.40
2023-05-09T19:37:55.499Z,19.50
2023-05-09T19:40:22.647Z,15.40
2023-05-09T19:42:50.726Z,14.30
2023-05-09T19:45:17.981Z,18.00
2023-05-09T19:47:45.136Z,19.30
2023-05-09T19:50:12.683Z,24.50
2023-05-09T19:52:40.420Z,27.80
2023-05-09T19:55:08.051Z,24.50
2023-05-09T19:57:35.236Z,20.40
2023-05-09T20:00:02.417Z,27.40
2023-05-09T20:02:33.513Z,21.00
2023-05-09T20:05:00.917Z,20.20
2023-05-09T20:07:28.170Z,17.20
2023-05-09T20:09:55.316Z,20.10
2023-05-09T20:12:22.320Z,14.90
2023-05-09T20:14:49.410Z,12.20
2023-05-09T20:17:16.471Z,14.10
2023-05-09T20:19:43.508Z,13.90
2023-05-09T20:22:10.870Z,11.80
2023-05-09T20:24:37.915Z,10.10
2023-05-09T20:27:04.967Z,14.00
2023-05-09T20:29:32.110Z,11.60
2023-05-09T20:31:59.302Z,12.20
2023-05-09T20:34:27.379Z,10.90
2023-05-09T20:36:55.159Z,12.50
2023-05-09T20:39:23.177Z,9.30
2023-05-09T20:41:50.800Z,10.10
2023-05-09T20:44:18.000Z,12.20
2023-05-09T20:46:45.747Z,16.80
2023-05-09T20:49:12.911Z,18.30
2023-05-09T20:51:40.168Z,14.60
2023-05-09T20:54:07.348Z,12.70
2023-05-09T20:56:35.684Z,14.80
2023-05-09T20:59:04.453Z,15.20
2023-05-09T21:01:32.657Z,13.40
2023-05-09T21:03:59.844Z,14.10
2023-05-09T21:06:26.955Z,17.90
2023-05-09T21:08:53.978Z,14.40
2023-05-09T21:11:22.203Z,14.50
2023-05-09T21:13:50.464Z,15.00
2023-05-09T21:16:17.603Z,15.50
2023-05-09T21:18:44.660Z,11.90
2023-05-09T21:21:11.923Z,14.30
2023-05-09T21:23:38.951Z,14.70
2023-05-09T21:26:05.981Z,16.50
2023-05-09T21:28:33.190Z,10.70
2023-05-09T21:31:01.906Z,11.50
2023-05-09T21:33:31.007Z,10.20
2023-05-09T21:35:59.393Z,11.20
2023-05-09T21:38:26.563Z,10.30
2023-05-09T21:40:53.617Z,10.10
2023-05-09T21:43:20.671Z,10.20
2023-05-09T21:45:47.806Z,14.10
2023-05-09T21:48:14.984Z,13.00
2023-05-09T21:50:46.160Z,16.10
2023-05-09T21:53:13.868Z,9.30
2023-05-09T21:55:41.236Z,9.10
2023-05-09T22:00:16.898Z,7.20
2023-05-09T22:02:44.619Z,8.00
2023-05-09T22:05:12.115Z,5.80
2023-05-09T22:07:39.513Z,8.30
2023-05-09T22:10:07.220Z,6.80
2023-05-09T22:12:34.384Z,5.20
2023-05-09T22:15:01.548Z,9.00
2023-05-09T22:17:28.930Z,5.90
2023-05-09T22:19:55.937Z,6.30
2023-05-09T22:22:23.293Z,6.20
2023-05-09T22:24:50.547Z,9.50
2023-05-09T22:27:17.594Z,6.60
2023-05-09T22:29:45.867Z,6.20
2023-05-09T22:32:14.360Z,8.10
2023-05-09T22:34:41.400Z,6.30
2023-05-09T22:37:09.063Z,7.70
2023-05-09T22:39:36.053Z,8.80
2023-05-09T22:42:04.286Z,9.10
2023-05-09T22:44:32.783Z,8.10
2023-05-09T22:47:00.030Z,7.40
2023-05-09T22:49:27.180Z,10.80
2023-05-09T22:51:54.537Z,9.50
2023-05-09T22:54:22.408Z,11.00
2023-05-09T22:56:49.933Z,10.90
2023-05-09T22:59:20.096Z,11.40
2023-05-09T23:01:47.383Z,15.10
2023-05-09T23:04:14.592Z,9.40
2023-05-09T23:06:41.745Z,11.90
2023-05-09T23:09:08.892Z,10.90
2023-05-09T23:11:36.048Z,11.00
2023-05-09T23:14:03.711Z,11.90
2023-05-09T23:16:30.863Z,10.30
2023-05-09T23:18:58.018Z,9.80
2023-05-09T23:21:25.169Z,8.70
2023-05-09T23:23:52.310Z,9.20
2023-05-09T23:26:19.360Z,7.60
2023-05-09T23:28:46.513Z,8.10
2023-05-09T23:31:13.715Z,9.80
2023-05-09T23:33:40.923Z,8.10
2023-05-09T23:36:09.292Z,8.40
2023-05-09T23:38:36.442Z,9.70
2023-05-09T23:41:03.614Z,8.00
2023-05-09T23:43:30.744Z,7.60
2023-05-09T23:45:57.903Z,6.10
2023-05-09T23:48:25.789Z,8.00
2023-05-09T23:50:52.911Z,5.30
2023-05-09T23:53:20.089Z,9.70
2023-05-09T23:55:47.216Z,6.40
2023-05-09T23:58:14.374Z,6.40
